sensor_id;sensor_type;location;lat;lon;timestamp;pressure;altitude;pressure_sealevel;temperature;humidity
45621;BME280;31345;51.522;10.702;2023-07-29T00:01:33;98412.97;;;19.30;100.00
45621;BME280;31345;51.522;10.702;2023-07-29T00:04:01;98400.72;;;19.29;100.00
45621;BME280;31345;51.522;10.702;2023-07-29T00:06:33;98404.72;;;19.25;100.00
45621;BME280;31345;51.522;10.702;2023-07-29T00:09:02;98398.75;;;19.23;100.00
45621;BME280;31345;51.522;10.702;2023-07-29T00:11:36;98399.28;;;19.18;100.00
45621;BME280;31345;51.522;10.702;2023-07-29T00:14:08;98391.97;;;18.97;100.00
45621;BME280;31345;51.522;10.702;2023-07-29T00:16:41;98392.41;;;19.00;100.00
45621;BME280;31345;51.522;10.702;2023-07-29T00:19:14;98395.53;;;19.04;100.00
45621;BME280;31345;51.522;10.702;2023-07-29T00:21:42;98397.59;;;18.94;100.00
45621;BME280;31345;51.522;10.702;2023-07-29T00:24:14;98404.97;;;18.67;100.00
45621;BME280;31345;51.522;10.702;2023-07-29T00:26:43;98397.00;;;18.75;100.00
45621;BME280;31345;51.522;10.702;2023-07-29T00:29:16;98391.38;;;18.78;100.00
45621;BME280;31345;51.522;10.702;2023-07-29T00:31:43;98398.22;;;18.56;100.00
45621;BME280;31345;51.522;10.702;2023-07-29T00:34:11;98398.56;;;18.36;100.00
45621;BME280;31345;51.522;10.702;2023-07-29T00:36:48;98394.75;;;18.38;100.00
45621;BME280;31345;51.522;10.702;2023-07-29T00:39:21;98402.38;;;18.42;100.00
45621;BME280;31345;51.522;10.702;2023-07-29T00:41:55;98400.06;;;18.30;100.00
45621;BME280;31345;51.522;10.702;2023-07-29T00:44:23;98402.59;;;18.07;100.00
45621;BME280;31345;51.522;10.702;2023-07-29T00:46:51;98397.63;;;18.12;100.00
45621;BME280;31345;51.522;10.702;2023-07-29T00:49:20;98390.34;;;17.97;100.00
45621;BME280;31345;51.522;10.702;2023-07-29T00:51:53;98378.97;;;17.88;100.00
45621;BME280;31345;51.522;10.702;2023-07-29T00:54:26;98391.50;;;17.86;100.00
45621;BME280;31345;51.522;10.702;2023-07-29T00:57:01;98387.38;;;17.84;100.00
45621;BME280;31345;51.522;10.702;2023-07-29T00:59:34;98386.22;;;17.86;100.00
45621;BME280;31345;51.522;10.702;2023-07-29T01:02:08;98392.66;;;17.75;100.00
45621;BME280;31345;51.522;10.702;2023-07-29T01:04:40;98388.34;;;17.58;100.00
45621;BME280;31345;51.522;10.702;2023-07-29T01:07:19;98380.59;;;17.48;100.00
45621;BME280;31345;51.522;10.702;2023-07-29T01:09:54;98381.84;;;17.27;100.00
45621;BME280;31345;51.522;10.702;2023-07-29T01:12:36;98379.56;;;17.32;100.00
45621;BME280;31345;51.522;10.702;2023-07-29T01:15:20;98380.34;;;17.24;100.00
45621;BME280;31345;51.522;10.702;2023-07-29T01:17:54;98379.19;;;17.19;100.00
45621;BME280;31345;51.522;10.702;2023-07-29T01:20:29;98387.41;;;17.16;100.00
45621;BME280;31345;51.522;10.702;2023-07-29T01:23:05;98387.97;;;17.28;100.00
45621;BME280;31345;51.522;10.702;2023-07-29T01:25:41;98382.50;;;17.21;100.00
45621;BME280;31345;51.522;10.702;2023-07-29T01:28:14;98391.03;;;17.06;100.00
45621;BME280;31345;51.522;10.702;2023-07-29T01:30:51;98397.44;;;16.95;100.00
45621;BME280;31345;51.522;10.702;2023-07-29T01:33:26;98400.72;;;16.97;100.00
45621;BME280;31345;51.522;10.702;2023-07-29T01:36:02;98403.31;;;16.81;100.00
45621;BME280;31345;51.522;10.702;2023-07-29T01:38:36;98401.81;;;16.78;100.00
45621;BME280;31345;51.522;10.702;2023-07-29T01:41:13;98394.56;;;16.72;100.00
45621;BME280;31345;51.522;10.702;2023-07-29T01:43:46;98387.38;;;16.99;100.00
45621;BME280;31345;51.522;10.702;2023-07-29T01:46:20;98388.91;;;17.10;100.00
45621;BME280;31345;51.522;10.702;2023-07-29T01:48:53;98387.50;;;16.89;100.00
45621;BME280;31345;51.522;10.702;2023-07-29T01:51:20;98380.34;;;16.73;100.00
45621;BME280;31345;51.522;10.702;2023-07-29T01:53:53;98379.41;;;16.82;100.00
45621;BME280;31345;51.522;10.702;2023-07-29T01:56:23;98376.44;;;16.85;100.00
45621;BME280;31345;51.522;10.702;2023-07-29T01:58:59;98379.59;;;16.97;100.00
45621;BME280;31345;51.522;10.702;2023-07-29T02:01:33;98384.53;;;16.84;100.00
45621;BME280;31345;51.522;10.702;2023-07-29T02:04:01;98378.38;;;16.75;100.00
45621;BME280;31345;51.522;10.702;2023-07-29T02:06:28;98377.28;;;16.51;100.00
45621;BME280;31345;51.522;10.702;2023-07-29T02:09:01;98383.19;;;16.45;100.00
45621;BME280;31345;51.522;10.702;2023-07-29T02:11:37;98382.88;;;16.48;100.00
45621;BME280;31345;51.522;10.702;2023-07-29T02:14:09;98382.16;;;16.38;100.00
45621;BME280;31345;51.522;10.702;2023-07-29T02:16:42;98386.59;;;16.37;100.00
45621;BME280;31345;51.522;10.702;2023-07-29T02:19:10;98377.13;;;16.26;100.00
45621;BME280;31345;51.522;10.702;2023-07-29T02:21:42;98378.03;;;16.35;100.00
45621;BME280;31345;51.522;10.702;2023-07-29T02:24:15;98378.56;;;16.47;100.00
45621;BME280;31345;51.522;10.702;2023-07-29T02:26:45;98374.97;;;16.48;100.00
45621;BME280;31345;51.522;10.702;2023-07-29T02:29:12;98369.63;;;16.40;100.00
45621;BME280;31345;51.522;10.702;2023-07-29T02:31:45;98369.63;;;16.40;100.00
45621;BME280;31345;51.522;10.702;2023-07-29T02:34:13;98361.72;;;16.40;100.00
45621;BME280;31345;51.522;10.702;2023-07-29T02:36:46;98368.50;;;16.42;100.00
45621;BME280;31345;51.522;10.702;2023-07-29T02:39:19;98361.06;;;16.38;100.00
45621;BME280;31345;51.522;10.702;2023-07-29T02:41:48;98361.06;;;16.38;100.00
45621;BME280;31345;51.522;10.702;2023-07-29T02:44:20;98354.53;;;16.24;100.00
45621;BME280;31345;51.522;10.702;2023-07-29T02:46:53;98362.19;;;16.35;100.00
45621;BME280;31345;51.522;10.702;2023-07-29T02:49:27;98366.44;;;16.63;100.00
45621;BME280;31345;51.522;10.702;2023-07-29T02:51:54;98384.97;;;16.71;100.00
45621;BME280;31345;51.522;10.702;2023-07-29T02:54:27;98372.75;;;16.70;100.00
45621;BME280;31345;51.522;10.702;2023-07-29T02:57:01;98374.25;;;16.72;100.00
45621;BME280;31345;51.522;10.702;2023-07-29T02:59:29;98376.84;;;16.64;100.00
45621;BME280;31345;51.522;10.702;2023-07-29T03:02:01;98373.94;;;16.76;100.00
45621;BME280;31345;51.522;10.702;2023-07-29T03:04:29;98373.38;;;16.64;100.00
45621;BME280;31345;51.522;10.702;2023-07-29T03:07:02;98377.91;;;16.80;100.00
45621;BME280;31345;51.522;10.702;2023-07-29T03:09:30;98372.34;;;16.91;100.00
45621;BME280;31345;51.522;10.702;2023-07-29T03:12:00;98381.75;;;16.94;100.00
45621;BME280;31345;51.522;10.702;2023-07-29T03:14:33;98375.00;;;16.91;100.00
45621;BME280;31345;51.522;10.702;2023-07-29T03:17:06;98372.50;;;16.90;100.00
45621;BME280;31345;51.522;10.702;2023-07-29T03:19:38;98361.94;;;16.90;100.00
45621;BME280;31345;51.522;10.702;2023-07-29T03:22:11;98369.03;;;16.97;100.00
45621;BME280;31345;51.522;10.702;2023-07-29T03:24:43;98371.06;;;17.04;100.00
45621;BME280;31345;51.522;10.702;2023-07-29T03:27:12;98374.16;;;16.99;100.00
45621;BME280;31345;51.522;10.702;2023-07-29T03:29:47;98362.97;;;16.97;100.00
45621;BME280;31345;51.522;10.702;2023-07-29T03:32:20;98362.94;;;16.89;100.00
45621;BME280;31345;51.522;10.702;2023-07-29T03:34:52;98361.13;;;16.97;100.00
45621;BME280;31345;51.522;10.702;2023-07-29T03:37:20;98361.97;;;17.06;100.00
45621;BME280;31345;51.522;10.702;2023-07-29T03:39:48;98352.09;;;17.08;100.00
45621;BME280;31345;51.522;10.702;2023-07-29T03:42:22;98354.91;;;17.07;100.00
45621;BME280;31345;51.522;10.702;2023-07-29T03:44:54;98350.78;;;17.04;100.00
45621;BME280;31345;51.522;10.702;2023-07-29T03:47:27;98348.00;;;17.14;100.00
45621;BME280;31345;51.522;10.702;2023-07-29T03:50:02;98345.16;;;17.16;100.00
45621;BME280;31345;51.522;10.702;2023-07-29T03:52:35;98348.97;;;17.21;100.00
45621;BME280;31345;51.522;10.702;2023-07-29T03:55:08;98352.13;;;17.25;100.00
45621;BME280;31345;51.522;10.702;2023-07-29T03:57:43;98351.63;;;17.30;100.00
45621;BME280;31345;51.522;10.702;2023-07-29T04:00:15;98345.69;;;17.28;100.00
45621;BME280;31345;51.522;10.702;2023-07-29T04:02:48;98344.84;;;17.27;100.00
45621;BME280;31345;51.522;10.702;2023-07-29T04:05:16;98332.97;;;17.31;100.00
45621;BME280;31345;51.522;10.702;2023-07-29T04:07:49;98332.97;;;17.40;100.00
45621;BME280;31345;51.522;10.702;2023-07-29T04:10:23;98334.28;;;17.44;100.00
45621;BME280;31345;51.522;10.702;2023-07-29T04:12:52;98323.56;;;17.37;100.00
45621;BME280;31345;51.522;10.702;2023-07-29T04:15:25;98319.28;;;17.36;100.00
45621;BME280;31345;51.522;10.702;2023-07-29T04:17:57;98316.78;;;17.26;100.00
45621;BME280;31345;51.522;10.702;2023-07-29T04:20:30;98308.38;;;17.39;100.00
45621;BME280;31345;51.522;10.702;2023-07-29T04:23:03;98308.06;;;17.42;100.00
45621;BME280;31345;51.522;10.702;2023-07-29T04:25:31;98307.41;;;17.48;100.00
45621;BME280;31345;51.522;10.702;2023-07-29T04:28:06;98304.75;;;17.40;100.00
45621;BME280;31345;51.522;10.702;2023-07-29T04:30:39;98315.63;;;17.37;100.00
45621;BME280;31345;51.522;10.702;2023-07-29T04:33:12;98324.28;;;17.47;100.00
45621;BME280;31345;51.522;10.702;2023-07-29T04:35:40;98329.88;;;17.53;100.00
45621;BME280;31345;51.522;10.702;2023-07-29T04:38:12;98326.44;;;17.52;100.00
45621;BME280;31345;51.522;10.702;2023-07-29T04:40:45;98331.88;;;17.67;100.00
45621;BME280;31345;51.522;10.702;2023-07-29T04:43:19;98323.63;;;17.70;100.00
45621;BME280;31345;51.522;10.702;2023-07-29T04:45:52;98326.06;;;17.72;100.00
45621;BME280;31345;51.522;10.702;2023-07-29T04:48:24;98325.25;;;17.80;100.00
45621;BME280;31345;51.522;10.702;2023-07-29T04:50:57;98320.94;;;17.95;100.00
45621;BME280;31345;51.522;10.702;2023-07-29T04:53:29;98319.59;;;17.99;100.00
45621;BME280;31345;51.522;10.702;2023-07-29T04:56:02;98321.06;;;18.10;100.00
45621;BME280;31345;51.522;10.702;2023-07-29T04:58:36;98306.63;;;18.30;100.00
45621;BME280;31345;51.522;10.702;2023-07-29T05:01:08;98311.38;;;18.43;100.00
45621;BME280;31345;51.522;10.702;2023-07-29T05:03:41;98307.22;;;18.57;100.00
45621;BME280;31345;51.522;10.702;2023-07-29T05:06:09;98306.97;;;18.75;100.00
45621;BME280;31345;51.522;10.702;2023-07-29T05:08:41;98312.84;;;18.94;100.00
45621;BME280;31345;51.522;10.702;2023-07-29T05:11:14;98301.53;;;19.00;100.00
45621;BME280;31345;51.522;10.702;2023-07-29T05:13:48;98289.56;;;19.04;100.00
45621;BME280;31345;51.522;10.702;2023-07-29T05:16:16;98301.19;;;19.03;100.00
45621;BME280;31345;51.522;10.702;2023-07-29T05:18:48;98306.47;;;19.03;100.00
45621;BME280;31345;51.522;10.702;2023-07-29T05:21:21;98292.94;;;19.21;100.00
45621;BME280;31345;51.522;10.702;2023-07-29T05:23:48;98291.06;;;19.30;100.00
45621;BME280;31345;51.522;10.702;2023-07-29T05:26:16;98302.06;;;19.42;100.00
45621;BME280;31345;51.522;10.702;2023-07-29T05:28:44;98305.66;;;19.49;100.00
45621;BME280;31345;51.522;10.702;2023-07-29T05:31:18;98303.66;;;19.51;100.00
45621;BME280;31345;51.522;10.702;2023-07-29T05:33:50;98298.81;;;19.55;100.00
45621;BME280;31345;51.522;10.702;2023-07-29T05:36:18;98306.13;;;19.53;100.00
45621;BME280;31345;51.522;10.702;2023-07-29T05:38:46;98312.78;;;19.49;100.00
45621;BME280;31345;51.522;10.702;2023-07-29T05:41:18;98309.31;;;19.48;100.00
45621;BME280;31345;51.522;10.702;2023-07-29T05:43:46;98319.47;;;19.45;100.00
45621;BME280;31345;51.522;10.702;2023-07-29T05:46:14;98316.81;;;19.45;100.00
45621;BME280;31345;51.522;10.702;2023-07-29T05:48:43;98313.56;;;19.34;100.00
45621;BME280;31345;51.522;10.702;2023-07-29T05:51:15;98315.94;;;19.29;100.00
45621;BME280;31345;51.522;10.702;2023-07-29T05:53:48;98304.84;;;19.25;100.00
45621;BME280;31345;51.522;10.702;2023-07-29T05:56:21;98314.47;;;19.26;100.00
45621;BME280;31345;51.522;10.702;2023-07-29T05:58:48;98306.19;;;19.21;100.00
45621;BME280;31345;51.522;10.702;2023-07-29T06:01:17;98306.38;;;19.20;100.00
45621;BME280;31345;51.522;10.702;2023-07-29T06:03:48;98297.38;;;19.29;100.00
45621;BME280;31345;51.522;10.702;2023-07-29T06:06:16;98302.13;;;19.34;100.00
45621;BME280;31345;51.522;10.702;2023-07-29T06:08:49;98306.63;;;19.33;100.00
45621;BME280;31345;51.522;10.702;2023-07-29T06:11:17;98303.06;;;19.41;100.00
45621;BME280;31345;51.522;10.702;2023-07-29T06:13:46;98302.53;;;19.46;100.00
45621;BME280;31345;51.522;10.702;2023-07-29T06:16:20;98304.53;;;19.43;100.00
45621;BME280;31345;51.522;10.702;2023-07-29T06:18:54;98312.03;;;19.40;100.00
45621;BME280;31345;51.522;10.702;2023-07-29T06:21:23;98310.38;;;19.39;100.00
45621;BME280;31345;51.522;10.702;2023-07-29T06:23:56;98309.84;;;19.43;100.00
45621;BME280;31345;51.522;10.702;2023-07-29T06:26:23;98307.66;;;19.47;100.00
45621;BME280;31345;51.522;10.702;2023-07-29T06:28:56;98303.84;;;19.50;100.00
45621;BME280;31345;51.522;10.702;2023-07-29T06:31:24;98301.19;;;19.50;100.00
45621;BME280;31345;51.522;10.702;2023-07-29T06:33:51;98296.50;;;19.52;100.00
45621;BME280;31345;51.522;10.702;2023-07-29T06:36:22;98300.16;;;19.51;100.00
45621;BME280;31345;51.522;10.702;2023-07-29T06:38:49;98299.88;;;19.46;100.00
45621;BME280;31345;51.522;10.702;2023-07-29T06:41:17;98312.63;;;19.50;100.00
45621;BME280;31345;51.522;10.702;2023-07-29T06:43:50;98307.06;;;19.60;100.00
45621;BME280;31345;51.522;10.702;2023-07-29T06:46:17;98307.22;;;19.67;100.00
45621;BME280;31345;51.522;10.702;2023-07-29T06:48:45;98308.75;;;19.61;100.00
45621;BME280;31345;51.522;10.702;2023-07-29T06:51:17;98308.75;;;19.61;100.00
45621;BME280;31345;51.522;10.702;2023-07-29T06:53:51;98303.72;;;19.66;100.00
45621;BME280;31345;51.522;10.702;2023-07-29T06:56:24;98292.31;;;19.58;100.00
45621;BME280;31345;51.522;10.702;2023-07-29T06:58:57;98287.19;;;19.56;100.00
45621;BME280;31345;51.522;10.702;2023-07-29T07:01:24;98281.66;;;19.66;100.00
45621;BME280;31345;51.522;10.702;2023-07-29T07:03:57;98276.09;;;19.76;100.00
45621;BME280;31345;51.522;10.702;2023-07-29T07:06:30;98278.41;;;19.79;100.00
45621;BME280;31345;51.522;10.702;2023-07-29T07:09:04;98279.41;;;19.78;100.00
45621;BME280;31345;51.522;10.702;2023-07-29T07:11:31;98277.59;;;19.93;100.00
45621;BME280;31345;51.522;10.702;2023-07-29T07:14:04;98283.19;;;20.14;100.00
45621;BME280;31345;51.522;10.702;2023-07-29T07:16:36;98279.25;;;20.25;100.00
45621;BME280;31345;51.522;10.702;2023-07-29T07:19:10;98283.00;;;20.15;100.00
45621;BME280;31345;51.522;10.702;2023-07-29T07:21:43;98279.06;;;20.11;100.00
45621;BME280;31345;51.522;10.702;2023-07-29T07:24:17;98280.06;;;20.10;100.00
45621;BME280;31345;51.522;10.702;2023-07-29T07:26:49;98273.75;;;20.11;100.00
45621;BME280;31345;51.522;10.702;2023-07-29T07:29:22;98269.09;;;20.13;100.00
45621;BME280;31345;51.522;10.702;2023-07-29T07:31:51;98281.34;;;20.14;100.00
45621;BME280;31345;51.522;10.702;2023-07-29T07:34:25;98265.81;;;20.11;100.00
45621;BME280;31345;51.522;10.702;2023-07-29T07:36:53;98266.63;;;20.12;100.00
45621;BME280;31345;51.522;10.702;2023-07-29T07:39:27;98273.84;;;20.18;100.00
45621;BME280;31345;51.522;10.702;2023-07-29T07:42:00;98274.56;;;20.27;100.00
45621;BME280;31345;51.522;10.702;2023-07-29T07:44:27;98270.72;;;20.29;100.00
45621;BME280;31345;51.522;10.702;2023-07-29T07:47:00;98268.72;;;20.31;100.00
45621;BME280;31345;51.522;10.702;2023-07-29T07:49:32;98276.69;;;20.31;100.00
45621;BME280;31345;51.522;10.702;2023-07-29T07:52:06;98272.00;;;20.33;100.00
45621;BME280;31345;51.522;10.702;2023-07-29T07:54:35;98276.50;;;20.33;100.00
45621;BME280;31345;51.522;10.702;2023-07-29T07:57:07;98269.81;;;20.37;100.00
45621;BME280;31345;51.522;10.702;2023-07-29T07:59:40;98265.59;;;20.43;100.00
45621;BME280;31345;51.522;10.702;2023-07-29T08:02:12;98254.69;;;20.53;100.00
45621;BME280;31345;51.522;10.702;2023-07-29T08:04:45;98257.97;;;20.70;100.00
45621;BME280;31345;51.522;10.702;2023-07-29T08:07:18;98255.00;;;20.80;100.00
45621;BME280;31345;51.522;10.702;2023-07-29T08:09:51;98258.84;;;20.77;100.00
45621;BME280;31345;51.522;10.702;2023-07-29T08:12:24;98258.84;;;20.77;100.00
45621;BME280;31345;51.522;10.702;2023-07-29T08:14:57;98260.44;;;20.71;100.00
45621;BME280;31345;51.522;10.702;2023-07-29T08:17:24;98259.63;;;20.71;100.00
45621;BME280;31345;51.522;10.702;2023-07-29T08:19:57;98254.03;;;20.66;100.00
45621;BME280;31345;51.522;10.702;2023-07-29T08:22:24;98249.19;;;20.69;100.00
45621;BME280;31345;51.522;10.702;2023-07-29T08:24:58;98244.31;;;20.73;100.00
45621;BME280;31345;51.522;10.702;2023-07-29T08:27:33;98245.75;;;20.76;100.00
45621;BME280;31345;51.522;10.702;2023-07-29T08:30:07;98241.28;;;20.76;100.00
45621;BME280;31345;51.522;10.702;2023-07-29T08:32:40;98248.41;;;20.76;100.00
45621;BME280;31345;51.522;10.702;2023-07-29T08:35:07;98251.16;;;20.82;100.00
45621;BME280;31345;51.522;10.702;2023-07-29T08:37:35;98252.44;;;20.87;100.00
45621;BME280;31345;51.522;10.702;2023-07-29T08:40:05;98249.78;;;20.87;100.00
45621;BME280;31345;51.522;10.702;2023-07-29T08:42:38;98252.16;;;20.81;100.00
45621;BME280;31345;51.522;10.702;2023-07-29T08:45:07;98250.34;;;20.82;100.00
45621;BME280;31345;51.522;10.702;2023-07-29T08:47:40;98260.72;;;20.77;100.00
45621;BME280;31345;51.522;10.702;2023-07-29T08:50:09;98263.97;;;20.57;100.00
45621;BME280;31345;51.522;10.702;2023-07-29T08:52:42;98278.69;;;20.44;100.00
45621;BME280;31345;51.522;10.702;2023-07-29T08:55:18;98262.13;;;20.27;100.00
45621;BME280;31345;51.522;10.702;2023-07-29T08:57:51;98258.47;;;20.28;100.00
45621;BME280;31345;51.522;10.702;2023-07-29T09:00:25;98253.44;;;20.18;100.00
45621;BME280;31345;51.522;10.702;2023-07-29T09:02:58;98247.41;;;20.25;100.00
45621;BME280;31345;51.522;10.702;2023-07-29T09:05:30;98248.78;;;20.36;100.00
45621;BME280;31345;51.522;10.702;2023-07-29T09:08:04;98251.75;;;20.48;100.00
45621;BME280;31345;51.522;10.702;2023-07-29T09:10:38;98248.91;;;20.64;100.00
45621;BME280;31345;51.522;10.702;2023-07-29T09:13:11;98251.97;;;20.83;100.00
45621;BME280;31345;51.522;10.702;2023-07-29T09:15:38;98250.91;;;20.99;100.00
45621;BME280;31345;51.522;10.702;2023-07-29T09:18:15;98241.97;;;21.07;100.00
45621;BME280;31345;51.522;10.702;2023-07-29T09:20:43;98242.94;;;21.21;100.00
45621;BME280;31345;51.522;10.702;2023-07-29T09:23:16;98253.00;;;21.26;100.00
45621;BME280;31345;51.522;10.702;2023-07-29T09:25:45;98248.69;;;21.25;100.00
45621;BME280;31345;51.522;10.702;2023-07-29T09:28:14;98254.03;;;21.25;100.00
45621;BME280;31345;51.522;10.702;2023-07-29T09:30:47;98250.72;;;21.22;100.00
45621;BME280;31345;51.522;10.702;2023-07-29T09:33:19;98251.59;;;21.30;100.00
45621;BME280;31345;51.522;10.702;2023-07-29T09:35:52;98246.28;;;21.30;100.00
45621;BME280;31345;51.522;10.702;2023-07-29T09:38:26;98250.25;;;21.41;100.00
45621;BME280;31345;51.522;10.702;2023-07-29T09:41:01;98250.69;;;21.44;100.00
45621;BME280;31345;51.522;10.702;2023-07-29T09:43:34;98254.34;;;21.43;100.00
45621;BME280;31345;51.522;10.702;2023-07-29T09:46:07;98248.00;;;21.44;100.00
45621;BME280;31345;51.522;10.702;2023-07-29T09:48:35;98252.16;;;21.47;100.00
45621;BME280;31345;51.522;10.702;2023-07-29T09:51:10;98248.94;;;21.52;100.00
45621;BME280;31345;51.522;10.702;2023-07-29T09:53:40;98246.25;;;21.52;100.00
45621;BME280;31345;51.522;10.702;2023-07-29T09:56:16;98246.25;;;21.52;100.00
45621;BME280;31345;51.522;10.702;2023-07-29T09:58:49;98249.84;;;21.66;100.00
45621;BME280;31345;51.522;10.702;2023-07-29T10:01:17;98243.38;;;21.75;100.00
45621;BME280;31345;51.522;10.702;2023-07-29T10:03:45;98239.50;;;21.78;100.00
45621;BME280;31345;51.522;10.702;2023-07-29T10:06:19;98237.03;;;21.76;100.00
45621;BME280;31345;51.522;10.702;2023-07-29T10:08:47;98243.78;;;21.79;100.00
45621;BME280;31345;51.522;10.702;2023-07-29T10:11:23;98232.47;;;21.70;100.00
45621;BME280;31345;51.522;10.702;2023-07-29T10:13:57;98231.75;;;21.54;100.00
45621;BME280;31345;51.522;10.702;2023-07-29T10:16:29;98234.09;;;21.42;100.00
45621;BME280;31345;51.522;10.702;2023-07-29T10:18:58;98239.81;;;21.39;100.00
45621;BME280;31345;51.522;10.702;2023-07-29T10:21:27;98230.31;;;21.52;100.00
45621;BME280;31345;51.522;10.702;2023-07-29T10:24:04;98224.66;;;21.61;100.00
45621;BME280;31345;51.522;10.702;2023-07-29T10:26:40;98232.28;;;21.71;100.00
45621;BME280;31345;51.522;10.702;2023-07-29T10:29:19;98239.31;;;21.79;100.00
45621;BME280;31345;51.522;10.702;2023-07-29T10:31:48;98240.56;;;21.83;100.00
45621;BME280;31345;51.522;10.702;2023-07-29T10:34:25;98241.50;;;22.04;100.00
45621;BME280;31345;51.522;10.702;2023-07-29T10:36:58;98243.00;;;22.20;100.00
45621;BME280;31345;51.522;10.702;2023-07-29T10:39:38;98241.00;;;22.29;100.00
45621;BME280;31345;51.522;10.702;2023-07-29T10:42:12;98235.69;;;22.36;100.00
45621;BME280;31345;51.522;10.702;2023-07-29T10:44:47;98235.75;;;22.43;100.00
45621;BME280;31345;51.522;10.702;2023-07-29T10:47:23;98234.25;;;22.33;100.00
45621;BME280;31345;51.522;10.702;2023-07-29T10:49:58;98234.72;;;22.44;100.00
45621;BME280;31345;51.522;10.702;2023-07-29T10:52:40;98226.56;;;22.52;100.00
45621;BME280;31345;51.522;10.702;2023-07-29T10:55:26;98223.78;;;23.14;100.00
45621;BME280;31345;51.522;10.702;2023-07-29T10:58:16;98215.63;;;23.43;100.00
45621;BME280;31345;51.522;10.702;2023-07-29T11:00:49;98208.66;;;23.28;94.05
45621;BME280;31345;51.522;10.702;2023-07-29T11:03:17;98201.66;;;23.07;91.67
45621;BME280;31345;51.522;10.702;2023-07-29T11:05:50;98205.31;;;22.79;94.71
45621;BME280;31345;51.522;10.702;2023-07-29T11:08:27;98213.50;;;22.77;98.50
45621;BME280;31345;51.522;10.702;2023-07-29T11:11:05;98207.38;;;22.90;98.23
45621;BME280;31345;51.522;10.702;2023-07-29T11:13:35;98209.44;;;23.22;99.54
45621;BME280;31345;51.522;10.702;2023-07-29T11:16:04;98211.09;;;23.57;100.00
45621;BME280;31345;51.522;10.702;2023-07-29T11:18:33;98193.44;;;23.56;96.42
45621;BME280;31345;51.522;10.702;2023-07-29T11:21:06;98187.13;;;23.23;95.20
45621;BME280;31345;51.522;10.702;2023-07-29T11:23:39;98198.75;;;23.02;98.23
45621;BME280;31345;51.522;10.702;2023-07-29T11:26:12;98206.50;;;22.70;97.58
45621;BME280;31345;51.522;10.702;2023-07-29T11:28:47;98206.47;;;22.49;97.76
45621;BME280;31345;51.522;10.702;2023-07-29T11:31:14;98209.13;;;22.43;100.00
45621;BME280;31345;51.522;10.702;2023-07-29T11:33:44;98201.63;;;22.94;100.00
45621;BME280;31345;51.522;10.702;2023-07-29T11:36:18;98192.22;;;22.98;98.74
45621;BME280;31345;51.522;10.702;2023-07-29T11:38:46;98193.63;;;22.94;97.89
45621;BME280;31345;51.522;10.702;2023-07-29T11:41:19;98194.28;;;22.89;98.41
45621;BME280;31345;51.522;10.702;2023-07-29T11:43:54;98190.53;;;22.76;94.98
45621;BME280;31345;51.522;10.702;2023-07-29T11:46:22;98185.22;;;22.76;93.74
45621;BME280;31345;51.522;10.702;2023-07-29T11:48:55;98183.41;;;23.11;96.13
45621;BME280;31345;51.522;10.702;2023-07-29T11:51:23;98178.47;;;23.62;93.39
45621;BME280;31345;51.522;10.702;2023-07-29T11:53:59;98161.19;;;23.71;90.93
45621;BME280;31345;51.522;10.702;2023-07-29T11:56:30;98166.66;;;23.97;91.71
45621;BME280;31345;51.522;10.702;2023-07-29T11:59:01;98166.44;;;23.98;91.96
45621;BME280;31345;51.522;10.702;2023-07-29T12:01:32;98158.59;;;24.03;91.03
45621;BME280;31345;51.522;10.702;2023-07-29T12:04:06;98165.41;;;24.06;86.31
45621;BME280;31345;51.522;10.702;2023-07-29T12:06:39;98164.22;;;23.88;87.43
45621;BME280;31345;51.522;10.702;2023-07-29T12:09:07;98157.13;;;23.55;86.56
45621;BME280;31345;51.522;10.702;2023-07-29T12:11:41;98157.75;;;23.50;83.42
45621;BME280;31345;51.522;10.702;2023-07-29T12:14:14;98169.25;;;23.51;86.74
45621;BME280;31345;51.522;10.702;2023-07-29T12:16:51;98176.19;;;23.59;86.51
45621;BME280;31345;51.522;10.702;2023-07-29T12:19:31;98166.97;;;23.54;83.26
45621;BME280;31345;51.522;10.702;2023-07-29T12:22:07;98170.00;;;23.78;80.93
45621;BME280;31345;51.522;10.702;2023-07-29T12:24:38;98166.09;;;23.74;82.16
45621;BME280;31345;51.522;10.702;2023-07-29T12:27:13;98182.94;;;23.82;78.37
45621;BME280;31345;51.522;10.702;2023-07-29T12:29:43;98194.47;;;23.55;85.32
45621;BME280;31345;51.522;10.702;2023-07-29T12:32:17;98194.25;;;23.57;90.35
45621;BME280;31345;51.522;10.702;2023-07-29T12:34:53;98208.25;;;23.25;90.44
45621;BME280;31345;51.522;10.702;2023-07-29T12:37:31;98194.06;;;23.45;91.98
45621;BME280;31345;51.522;10.702;2023-07-29T12:40:06;98197.50;;;23.79;89.00
45621;BME280;31345;51.522;10.702;2023-07-29T12:42:39;98210.97;;;24.18;92.15
45621;BME280;31345;51.522;10.702;2023-07-29T12:45:10;98209.94;;;24.19;90.82
45621;BME280;31345;51.522;10.702;2023-07-29T12:47:38;98206.44;;;24.18;88.42
45621;BME280;31345;51.522;10.702;2023-07-29T12:50:11;98208.34;;;23.91;90.15
45621;BME280;31345;51.522;10.702;2023-07-29T12:52:44;98202.66;;;23.67;90.15
45621;BME280;31345;51.522;10.702;2023-07-29T12:55:17;98197.97;;;23.49;91.37
45621;BME280;31345;51.522;10.702;2023-07-29T12:57:57;98207.19;;;23.53;91.40
45621;BME280;31345;51.522;10.702;2023-07-29T13:00:32;98198.78;;;23.43;91.69
45621;BME280;31345;51.522;10.702;2023-07-29T13:02:59;98206.59;;;23.37;93.09
45621;BME280;31345;51.522;10.702;2023-07-29T13:05:32;98207.81;;;23.48;93.70